Time,TemperatureF,DewpointF,PressureIn,WindDirection,WindDirectionDegrees,WindSpeedMPH,WindSpeedGustMPH,Humidity,HourlyPrecipIn,Conditions,Clouds,dailyrainin,SolarRadiationWatts/m^2,SoftwareType,DateUTC
2017-05-27 00:05:00,46.2,32.2,30.08,South,179,0.0,2.0,58,0.00,BKN,BKN,0.00,0.0,WeatherDisplay:10.37,2017-05-27 08:05:00,
2017-05-27 00:10:00,46.0,32.5,30.08,South,188,0.0,4.0,59,0.00,BKN,BKN,0.00,0.0,WeatherDisplay:10.37,2017-05-27 08:10:00,
2017-05-27 00:20:00,45.6,32.1,30.08,South,171,0.0,1.0,59,0.00,BKN,BKN,0.00,0.0,WeatherDisplay:10.37,2017-05-27 08:20:00,
2017-05-27 00:35:00,45.0,30.3,30.08,WNW,285,1.0,3.0,56,0.00,BKN,BKN,0.00,0.0,WeatherDisplay:10.37,2017-05-27 08:35:00,
2017-05-27 00:40:00,45.1,31.2,30.08,SSE,156,0.0,1.0,58,0.00,BKN,BKN,0.00,0.0,WeatherDisplay:10.37,2017-05-27 08:40:00,
2017-05-27 00:50:00,44.8,31.3,30.08,SSE,155,0.0,2.0,59,0.00,BKN,BKN,0.00,0.0,WeatherDisplay:10.37,2017-05-27 08:50:00,
2017-05-27 01:05:00,44.5,31.1,30.08,SSE,164,1.0,3.0,59,0.00,BKN,BKN,0.00,0.0,WeatherDisplay:10.37,2017-05-27 09:05:00,
2017-05-27 01:10:00,44.7,30.8,30.08,South,175,0.0,2.0,58,0.00,BKN,BKN,0.00,0.0,WeatherDisplay:10.37,2017-05-27 09:10:00,
2017-05-27 01:20:00,44.7,31.6,30.08,South,183,0.0,1.0,60,0.00,BKN,BKN,0.00,0.0,WeatherDisplay:10.37,2017-05-27 09:20:00,
2017-05-27 01:35:00,44.2,31.6,30.08,South,183,0.0,2.0,61,0.00,BKN,BKN,0.00,0.0,WeatherDisplay:10.37,2017-05-27 09:35:00,
2017-05-27 01:40:00,44.3,31.3,30.08,South,183,0.0,2.0,60,0.00,BKN,BKN,0.00,0.0,WeatherDisplay:10.37,2017-05-27 09:40:00,
2017-05-27 01:50:00,44.4,32.2,30.08,South,175,0.0,2.0,62,0.00,BKN,BKN,0.00,0.0,WeatherDisplay:10.37,2017-05-27 09:50:00,
2017-05-27 02:05:00,43.9,32.5,30.09,South,173,0.0,0.0,64,0.00,BKN,BKN,0.00,0.0,WeatherDisplay:10.37,2017-05-27 10:05:00,
2017-05-27 02:10:00,43.8,32.4,30.09,South,179,1.0,4.0,64,0.00,BKN,BKN,0.00,0.0,WeatherDisplay:10.37,2017-05-27 10:10:00,
2017-05-27 02:20:00,43.9,32.9,30.09,SE,140,0.0,1.0,65,0.00,BKN,BKN,0.00,0.0,WeatherDisplay:10.37,2017-05-27 10:20:00,
2017-05-27 02:35:00,43.0,32.8,30.09,SE,141,0.0,1.0,67,0.00,BKN,BKN,0.00,0.0,WeatherDisplay:10.37,2017-05-27 10:35:00,
2017-05-27 02:40:00,42.9,32.7,30.09,SSE,150,1.0,5.0,67,0.00,BKN,BKN,0.00,0.0,WeatherDisplay:10.37,2017-05-27 10:40:00,
2017-05-27 02:50:00,43.5,32.9,30.09,South,175,1.0,4.0,66,0.00,BKN,BKN,0.00,0.0,WeatherDisplay:10.37,2017-05-27 10:50:00,
2017-05-27 03:05:00,43.2,33.0,30.08,SSE,166,0.0,1.0,67,0.00,BKN,BKN,0.00,0.0,WeatherDisplay:10.37,2017-05-27 11:05:00,
2017-05-27 03:10:00,42.9,33.1,30.09,SSE,166,0.0,1.0,68,0.00,BKN,BKN,0.00,0.0,WeatherDisplay:10.37,2017-05-27 11:10:00,
2017-05-27 03:20:00,42.3,33.2,30.09,SSE,166,1.0,2.0,70,0.00,BKN,BKN,0.00,0.0,WeatherDisplay:10.37,2017-05-27 11:20:00,
2017-05-27 03:35:00,41.7,33.4,30.09,SSE,166,0.0,1.0,72,0.00,BKN,BKN,0.00,0.0,WeatherDisplay:10.37,2017-05-27 11:35:00,
2017-05-27 03:40:00,41.6,33.3,30.09,SSE,166,0.0,1.0,72,0.00,BKN,BKN,0.00,0.0,WeatherDisplay:10.37,2017-05-27 11:40:00,
2017-05-27 03:50:00,41.3,33.3,30.09,SSE,166,0.0,2.0,73,0.00,BKN,BKN,0.00,0.0,WeatherDisplay:10.37,2017-05-27 11:50:00,
2017-05-27 04:05:00,41.0,33.3,30.08,SSE,166,0.0,0.0,74,0.00,BKN,BKN,0.00,0.0,WeatherDisplay:10.37,2017-05-27 12:05:00,
2017-05-27 04:10:00,40.9,32.9,30.08,SSE,166,0.0,0.0,73,0.00,BKN,BKN,0.00,0.0,WeatherDisplay:10.37,2017-05-27 12:10:00,
2017-05-27 04:20:00,41.0,32.7,30.08,SSE,166,0.0,0.0,72,0.00,BKN,BKN,0.00,0.0,WeatherDisplay:10.37,2017-05-27 12:20:00,
2017-05-27 04:35:00,40.4,31.8,30.08,SSE,166,0.0,0.0,71,0.00,BKN,BKN,0.00,0.0,WeatherDisplay:10.37,2017-05-27 12:35:00,
2017-05-27 04:40:00,40.3,32.0,30.08,SSE,166,0.0,0.0,72,0.00,BKN,BKN,0.00,0.0,WeatherDisplay:10.37,2017-05-27 12:40:00,
2017-05-27 04:50:00,40.0,31.4,30.08,SSE,166,0.0,0.0,71,0.00,BKN,BKN,0.00,0.0,WeatherDisplay:10.37,2017-05-27 12:50:00,
2017-05-27 05:05:00,39.6,31.0,30.08,SSE,166,0.0,0.0,71,0.00,BKN,BKN,0.00,5.0,WeatherDisplay:10.37,2017-05-27 13:05:00,
2017-05-27 05:10:00,39.3,30.7,30.08,SSE,166,0.0,0.0,71,0.00,BKN,BKN,0.00,7.0,WeatherDisplay:10.37,2017-05-27 13:10:00,
2017-05-27 05:20:00,38.9,30.7,30.08,SSE,166,0.0,2.0,72,0.00,BKN,BKN,0.00,14.0,WeatherDisplay:10.37,2017-05-27 13:20:00,
2017-05-27 05:35:00,38.8,30.6,30.08,SSE,166,0.0,1.0,72,0.00,BKN,BKN,0.00,18.0,WeatherDisplay:10.37,2017-05-27 13:35:00,
2017-05-27 05:40:00,38.8,30.6,30.08,SE,131,0.0,1.0,72,0.00,BKN,BKN,0.00,21.0,WeatherDisplay:10.37,2017-05-27 13:40:00,
2017-05-27 05:50:00,39.0,30.8,30.08,ENE,72,0.0,1.0,72,0.00,BKN,BKN,0.00,21.0,WeatherDisplay:10.37,2017-05-27 13:50:00,
2017-05-27 06:05:00,39.8,31.5,30.08,ENE,72,0.0,0.0,72,0.00,BKN,BKN,0.00,21.0,WeatherDisplay:10.37,2017-05-27 14:05:00,
2017-05-27 06:10:00,40.0,31.3,30.08,East,95,1.0,2.0,71,0.00,BKN,BKN,0.00,23.0,WeatherDisplay:10.37,2017-05-27 14:10:00,
2017-05-27 06:20:00,40.9,31.5,30.08,SSE,155,0.0,1.0,69,0.00,BKN,BKN,0.00,18.0,WeatherDisplay:10.37,2017-05-27 14:20:00,
2017-05-27 06:35:00,42.0,32.6,30.08,SSW,195,0.0,2.0,69,0.00,BKN,BKN,0.00,18.0,WeatherDisplay:10.37,2017-05-27 14:35:00,
2017-05-27 06:40:00,42.5,32.6,30.08,SW,219,0.0,2.0,68,0.00,BKN,BKN,0.00,19.0,WeatherDisplay:10.37,2017-05-27 14:40:00,
2017-05-27 06:50:00,42.9,33.1,30.08,SSW,206,0.0,1.0,68,0.00,BKN,BKN,0.00,28.0,WeatherDisplay:10.37,2017-05-27 14:50:00,
2017-05-27 07:05:00,42.9,33.7,30.08,SSW,206,0.0,1.0,70,0.00,BKN,BKN,0.00,47.0,WeatherDisplay:10.37,2017-05-27 15:05:00,
2017-05-27 07:10:00,42.8,33.7,30.09,SSW,206,0.0,1.0,70,0.00,BKN,BKN,0.00,49.0,WeatherDisplay:10.37,2017-05-27 15:10:00,
2017-05-27 07:20:00,42.8,34.1,30.09,South,188,0.0,2.0,71,0.00,BKN,BKN,0.00,58.0,WeatherDisplay:10.37,2017-05-27 15:20:00,
2017-05-27 07:35:00,43.2,32.6,30.09,WNW,302,0.0,5.0,66,0.00,BKN,BKN,0.00,40.0,WeatherDisplay:10.37,2017-05-27 15:35:00,
2017-05-27 07:40:00,43.3,31.6,30.09,NNW,343,0.0,2.0,63,0.00,BKN,BKN,0.00,39.0,WeatherDisplay:10.37,2017-05-27 15:40:00,
2017-05-27 07:50:00,43.6,31.4,30.08,NNW,343,1.0,2.0,62,0.00,BKN,BKN,0.00,44.0,WeatherDisplay:10.37,2017-05-27 15:50:00,
2017-05-27 08:05:00,43.9,32.5,30.08,NNE,14,1.0,3.0,64,0.00,BKN,BKN,0.00,51.0,WeatherDisplay:10.37,2017-05-27 16:05:00,
2017-05-27 08:10:00,44.0,33.0,30.08,North,8,0.0,3.0,65,0.00,BKN,BKN,0.00,51.0,WeatherDisplay:10.37,2017-05-27 16:10:00,
2017-05-27 08:20:00,44.2,32.8,30.08,North,11,2.0,4.0,64,0.00,BKN,BKN,0.00,46.0,WeatherDisplay:10.37,2017-05-27 16:20:00,
2017-05-27 08:35:00,45.2,29.5,30.08,NNE,21,0.0,4.0,54,0.00,BKN,BKN,0.00,54.0,WeatherDisplay:10.37,2017-05-27 16:35:00,
2017-05-27 08:40:00,45.6,29.0,30.08,North,9,1.0,3.0,52,0.00,BKN,BKN,0.00,60.0,WeatherDisplay:10.37,2017-05-27 16:40:00,
2017-05-27 08:50:00,46.3,31.5,30.08,South,180,1.0,3.0,56,0.00,BKN,BKN,0.00,65.0,WeatherDisplay:10.37,2017-05-27 16:50:00,
2017-05-27 09:05:00,45.8,34.0,30.08,SSW,210,1.0,2.0,63,0.00,BKN,BKN,0.00,104.0,WeatherDisplay:10.37,2017-05-27 17:05:00,
2017-05-27 09:10:00,45.7,34.6,30.08,WSW,241,0.0,2.0,65,0.00,BKN,BKN,0.00,114.0,WeatherDisplay:10.37,2017-05-27 17:10:00,
2017-05-27 09:20:00,45.9,34.4,30.08,SSW,210,1.0,2.0,64,0.00,BKN,BKN,0.00,123.0,WeatherDisplay:10.37,2017-05-27 17:20:00,
2017-05-27 09:35:00,46.1,33.4,30.08,SSW,201,0.0,2.0,61,0.00,BKN,BKN,0.00,137.0,WeatherDisplay:10.37,2017-05-27 17:35:00,
2017-05-27 09:40:00,46.3,33.2,30.08,SSW,200,1.0,2.0,60,0.00,BKN,BKN,0.00,134.0,WeatherDisplay:10.37,2017-05-27 17:40:00,
2017-05-27 09:50:00,46.5,33.8,30.08,SSW,199,0.0,2.0,61,0.00,BKN,BKN,0.00,114.0,WeatherDisplay:10.37,2017-05-27 17:50:00,
2017-05-27 10:05:00,46.7,34.0,30.08,SSW,199,0.0,1.0,61,0.00,BKN,BKN,0.00,111.0,WeatherDisplay:10.37,2017-05-27 18:05:00,